FIN7EH EFHK-EGPH
Flight info
| Callsign | FIN7EH |
|---|---|
| Flight time | 2h 33m |
| Altitude | 34000 |
| Route | NEPEK Y375 UXADA DCT ESEBA/N0456F360 DCT KLONN DCT OVDAN DCT BUDON DCT OSLEL DCT ADN DCT NAXIL/N0412F240 P600 PTH |
| Aircraft | A320/M-SDE3FGHIRWY/LB1 |
Departure
| Time | 2026-05-07 03:58 |
|---|---|
| Airport | Helsinki Vantaa Airport (EFHK) |
Arrival
| Time | 2026-05-07 06:32 |
|---|---|
| Airport | Edinburgh Airport (EGPH) |
| Time | Latitude | Longitude | Altitude | Speed | Heading |
|---|---|---|---|---|---|
| 2026-05-07 03:34 | 60.31303 | 24.96461 | 167 ft | 0 kts | 47° |
| 2026-05-07 03:50 | 60.31292 | 24.96437 | 166 ft | 4 kts | 45° |
| 2026-05-07 03:50 | 60.31278 | 24.96402 | 166 ft | 2 kts | 61° |
| 2026-05-07 03:50 | 60.31264 | 24.96362 | 166 ft | 4 kts | 35° |
| 2026-05-07 03:50 | 60.31242 | 24.96346 | 166 ft | 2 kts | 358° |
| 2026-05-07 03:51 | 60.31241 | 24.96346 | 166 ft | 0 kts | 358° |
| 2026-05-07 03:52 | 60.31246 | 24.96334 | 166 ft | 3 kts | 315° |
| 2026-05-07 03:53 | 60.31264 | 24.96295 | 166 ft | 7 kts | 314° |
| 2026-05-07 03:53 | 60.31308 | 24.96196 | 166 ft | 9 kts | 289° |
| 2026-05-07 03:53 | 60.31282 | 24.96099 | 166 ft | 8 kts | 227° |
| 2026-05-07 03:53 | 60.31237 | 24.96002 | 166 ft | 9 kts | 227° |
| 2026-05-07 03:54 | 60.31224 | 24.95885 | 166 ft | 11 kts | 282° |
| 2026-05-07 03:54 | 60.31214 | 24.95709 | 166 ft | 15 kts | 229° |
| 2026-05-07 03:54 | 60.31130 | 24.95553 | 166 ft | 18 kts | 214° |
| 2026-05-07 03:54 | 60.31033 | 24.95362 | 166 ft | 21 kts | 227° |
| 2026-05-07 03:55 | 60.31014 | 24.95160 | 168 ft | 15 kts | 313° |
| 2026-05-07 03:55 | 60.31092 | 24.95027 | 168 ft | 16 kts | 322° |
| 2026-05-07 03:55 | 60.31192 | 24.94879 | 164 ft | 20 kts | 317° |
| 2026-05-07 03:55 | 60.31297 | 24.94686 | 161 ft | 20 kts | 317° |
| 2026-05-07 03:56 | 60.31259 | 24.94486 | 158 ft | 18 kts | 227° |
| 2026-05-07 03:56 | 60.31181 | 24.94313 | 159 ft | 16 kts | 227° |
| 2026-05-07 03:56 | 60.31107 | 24.94149 | 157 ft | 16 kts | 227° |
| 2026-05-07 03:56 | 60.31042 | 24.93994 | 158 ft | 13 kts | 243° |
| 2026-05-07 03:57 | 60.31050 | 24.93815 | 159 ft | 15 kts | 298° |
| 2026-05-07 03:57 | 60.31129 | 24.93679 | 157 ft | 11 kts | 332° |
| 2026-05-07 03:57 | 60.31204 | 24.93805 | 159 ft | 32 kts | 48° |
| 2026-05-07 03:57 | 60.31521 | 24.94498 | 163 ft | 99 kts | 48° |
| 2026-05-07 03:58 | 60.32109 | 24.95788 | 175 ft | 150 kts | 46° |
| 2026-05-07 03:58 | 60.32856 | 24.97402 | 648 ft | 154 kts | 47° |
| 2026-05-07 03:58 | 60.33564 | 24.98985 | 1391 ft | 152 kts | 50° |
| 2026-05-07 03:58 | 60.34313 | 25.00651 | 1767 ft | 171 kts | 50° |
| 2026-05-07 03:59 | 60.35155 | 25.02535 | 2106 ft | 190 kts | 50° |
| 2026-05-07 03:59 | 60.36084 | 25.04612 | 2448 ft | 209 kts | 49° |
| 2026-05-07 03:59 | 60.37087 | 25.06833 | 2825 ft | 227 kts | 49° |
| 2026-05-07 03:59 | 60.38210 | 25.09319 | 3241 ft | 249 kts | 49° |
| 2026-05-07 04:00 | 60.39520 | 25.11688 | 3976 ft | 258 kts | 31° |
| 2026-05-07 04:00 | 60.41231 | 25.12823 | 4818 ft | 264 kts | 6° |
| 2026-05-07 04:00 | 60.43078 | 25.12933 | 5661 ft | 267 kts | 1° |
| 2026-05-07 04:00 | 60.44942 | 25.12984 | 6540 ft | 269 kts | 360° |
| 2026-05-07 04:01 | 60.46824 | 25.13032 | 7308 ft | 272 kts | 0° |
| 2026-05-07 04:01 | 60.48728 | 25.12774 | 8076 ft | 275 kts | 347° |
| 2026-05-07 04:01 | 60.50526 | 25.11429 | 8843 ft | 278 kts | 329° |
| 2026-05-07 04:01 | 60.52056 | 25.09054 | 9663 ft | 279 kts | 311° |
| 2026-05-07 04:02 | 60.53265 | 25.05963 | 10348 ft | 284 kts | 305° |
| 2026-05-07 04:02 | 60.54495 | 25.02620 | 10551 ft | 307 kts | 305° |
| 2026-05-07 04:02 | 60.55820 | 24.99015 | 10703 ft | 329 kts | 305° |
| 2026-05-07 04:02 | 60.57223 | 24.95205 | 11130 ft | 340 kts | 305° |
| 2026-05-07 04:03 | 60.58655 | 24.91320 | 11779 ft | 345 kts | 305° |
| 2026-05-07 04:03 | 60.60081 | 24.87454 | 12459 ft | 347 kts | 304° |
| 2026-05-07 04:03 | 60.61537 | 24.83502 | 13146 ft | 350 kts | 304° |
| 2026-05-07 04:03 | 60.63022 | 24.79456 | 13830 ft | 353 kts | 304° |
| 2026-05-07 04:04 | 60.64473 | 24.75491 | 14412 ft | 356 kts | 304° |
| 2026-05-07 04:04 | 60.65959 | 24.71416 | 15017 ft | 358 kts | 303° |
| 2026-05-07 04:04 | 60.67449 | 24.67326 | 15625 ft | 360 kts | 303° |
| 2026-05-07 04:04 | 60.68947 | 24.63207 | 16216 ft | 363 kts | 303° |
| 2026-05-07 04:05 | 60.70456 | 24.59054 | 16819 ft | 365 kts | 303° |
| 2026-05-07 04:05 | 60.71971 | 24.54877 | 17452 ft | 367 kts | 302° |
| 2026-05-07 04:05 | 60.73326 | 24.50492 | 18038 ft | 365 kts | 292° |
| 2026-05-07 04:05 | 60.74266 | 24.45690 | 18582 ft | 363 kts | 283° |
| 2026-05-07 04:06 | 60.74765 | 24.40649 | 19092 ft | 362 kts | 274° |
| 2026-05-07 04:06 | 60.75082 | 24.35535 | 19636 ft | 363 kts | 274° |
| 2026-05-07 04:06 | 60.75404 | 24.30407 | 20169 ft | 364 kts | 274° |
| 2026-05-07 04:06 | 60.75731 | 24.25255 | 20691 ft | 366 kts | 274° |
| 2026-05-07 04:07 | 60.76057 | 24.20091 | 21201 ft | 367 kts | 274° |
| 2026-05-07 04:07 | 60.76379 | 24.14902 | 21696 ft | 368 kts | 273° |
| 2026-05-07 04:07 | 60.76701 | 24.09696 | 22183 ft | 370 kts | 273° |
| 2026-05-07 04:07 | 60.77023 | 24.04470 | 22655 ft | 371 kts | 273° |
| 2026-05-07 04:08 | 60.77346 | 23.99228 | 23116 ft | 372 kts | 273° |
| 2026-05-07 04:08 | 60.77668 | 23.93958 | 23562 ft | 374 kts | 273° |
| 2026-05-07 04:08 | 60.77988 | 23.88677 | 23976 ft | 375 kts | 272° |
| 2026-05-07 04:08 | 60.78304 | 23.83379 | 24363 ft | 375 kts | 272° |
| 2026-05-07 04:09 | 60.78616 | 23.78070 | 24720 ft | 376 kts | 272° |
| 2026-05-07 04:09 | 60.78925 | 23.72748 | 25058 ft | 377 kts | 272° |
| 2026-05-07 04:09 | 60.79237 | 23.67417 | 25382 ft | 378 kts | 272° |
| 2026-05-07 04:09 | 60.79552 | 23.62055 | 25708 ft | 379 kts | 272° |
| 2026-05-07 04:10 | 60.79864 | 23.56683 | 26021 ft | 381 kts | 271° |
| 2026-05-07 04:10 | 60.80174 | 23.51286 | 26335 ft | 382 kts | 271° |
| 2026-05-07 04:10 | 60.80482 | 23.45876 | 26645 ft | 383 kts | 271° |
| 2026-05-07 04:10 | 60.80789 | 23.40442 | 26942 ft | 385 kts | 271° |
| 2026-05-07 04:11 | 60.81098 | 23.34998 | 27231 ft | 386 kts | 271° |
| 2026-05-07 04:11 | 60.81404 | 23.29528 | 27505 ft | 387 kts | 271° |
| 2026-05-07 04:11 | 60.81706 | 23.24038 | 27785 ft | 388 kts | 271° |
| 2026-05-07 04:11 | 60.82006 | 23.18534 | 28106 ft | 389 kts | 271° |
| 2026-05-07 04:12 | 60.82307 | 23.13012 | 28325 ft | 391 kts | 270° |
| 2026-05-07 04:12 | 60.82604 | 23.07529 | 28563 ft | 392 kts | 270° |
| 2026-05-07 04:12 | 60.82901 | 23.01958 | 28798 ft | 393 kts | 270° |
| 2026-05-07 04:12 | 60.83192 | 22.96460 | 29025 ft | 394 kts | 270° |
| 2026-05-07 04:13 | 60.83486 | 22.90864 | 29246 ft | 395 kts | 270° |
| 2026-05-07 04:13 | 60.83782 | 22.85264 | 29551 ft | 394 kts | 270° |
| 2026-05-07 04:13 | 60.84074 | 22.79683 | 29873 ft | 392 kts | 270° |
| 2026-05-07 04:13 | 60.84358 | 22.74136 | 30181 ft | 391 kts | 270° |
| 2026-05-07 04:14 | 60.84637 | 22.68596 | 30439 ft | 390 kts | 270° |
| 2026-05-07 04:14 | 60.84898 | 22.63063 | 30671 ft | 388 kts | 267° |
| 2026-05-07 04:14 | 60.84844 | 22.57576 | 30896 ft | 383 kts | 260° |
| 2026-05-07 04:14 | 60.84603 | 22.52138 | 31119 ft | 383 kts | 261° |
| 2026-05-07 04:15 | 60.84365 | 22.46686 | 31402 ft | 383 kts | 261° |
| 2026-05-07 04:15 | 60.84131 | 22.41254 | 31648 ft | 382 kts | 261° |
| 2026-05-07 04:15 | 60.83898 | 22.35823 | 31880 ft | 382 kts | 261° |
| 2026-05-07 04:15 | 60.83663 | 22.30403 | 32103 ft | 382 kts | 261° |
| 2026-05-07 04:16 | 60.83422 | 22.24962 | 32334 ft | 382 kts | 261° |
| 2026-05-07 04:16 | 60.83179 | 22.19529 | 32555 ft | 382 kts | 261° |
| 2026-05-07 04:16 | 60.82929 | 22.14101 | 32772 ft | 383 kts | 261° |
| 2026-05-07 04:16 | 60.82678 | 22.08675 | 32992 ft | 383 kts | 261° |
| 2026-05-07 04:17 | 60.82425 | 22.03245 | 33212 ft | 383 kts | 261° |
| 2026-05-07 04:17 | 60.82173 | 21.97817 | 33436 ft | 383 kts | 261° |
| 2026-05-07 04:17 | 60.81918 | 21.92388 | 33653 ft | 383 kts | 261° |
| 2026-05-07 04:17 | 60.81743 | 21.88724 | 33802 ft | 383 kts | 261° |
| 2026-05-07 04:18 | 60.81393 | 21.81530 | 34084 ft | 383 kts | 261° |
| 2026-05-07 04:18 | 60.81127 | 21.76105 | 34263 ft | 383 kts | 261° |
| 2026-05-07 04:18 | 60.80952 | 21.72501 | 34367 ft | 384 kts | 261° |
| 2026-05-07 04:18 | 60.80596 | 21.65209 | 34579 ft | 386 kts | 261° |
| 2026-05-07 04:19 | 60.80416 | 21.61579 | 34655 ft | 387 kts | 261° |
| 2026-05-07 04:19 | 60.80142 | 21.56083 | 34772 ft | 389 kts | 261° |
| 2026-05-07 04:19 | 60.79864 | 21.50557 | 34875 ft | 390 kts | 261° |
| 2026-05-07 04:19 | 60.79583 | 21.45027 | 35026 ft | 390 kts | 261° |
| 2026-05-07 04:20 | 60.79300 | 21.39495 | 35179 ft | 391 kts | 261° |
| 2026-05-07 04:20 | 60.79015 | 21.33955 | 35312 ft | 391 kts | 261° |
| 2026-05-07 04:20 | 60.78727 | 21.28405 | 35446 ft | 392 kts | 261° |
| 2026-05-07 04:21 | 60.78145 | 21.17278 | 35694 ft | 394 kts | 261° |
| 2026-05-07 04:21 | 60.77849 | 21.11710 | 35818 ft | 394 kts | 261° |
| 2026-05-07 04:21 | 60.77548 | 21.06129 | 35972 ft | 394 kts | 261° |
| 2026-05-07 04:21 | 60.77241 | 21.00541 | 36047 ft | 396 kts | 261° |
| 2026-05-07 04:22 | 60.76617 | 20.89305 | 36072 ft | 400 kts | 261° |
| 2026-05-07 04:22 | 60.75984 | 20.77974 | 36057 ft | 401 kts | 261° |
| 2026-05-07 04:23 | 60.75345 | 20.66629 | 36057 ft | 402 kts | 261° |
| 2026-05-07 04:23 | 60.74706 | 20.55352 | 36057 ft | 402 kts | 261° |
| 2026-05-07 04:24 | 60.74041 | 20.43993 | 36058 ft | 402 kts | 261° |
| 2026-05-07 04:24 | 60.73367 | 20.32636 | 36060 ft | 402 kts | 261° |
| 2026-05-07 04:25 | 60.72687 | 20.21273 | 36061 ft | 402 kts | 261° |
| 2026-05-07 04:25 | 60.71995 | 20.09949 | 36061 ft | 402 kts | 260° |
| 2026-05-07 04:26 | 60.71293 | 19.98624 | 36033 ft | 401 kts | 260° |
| 2026-05-07 04:26 | 60.70592 | 19.87312 | 36044 ft | 401 kts | 260° |
| 2026-05-07 04:27 | 60.69877 | 19.76007 | 36055 ft | 401 kts | 260° |
| 2026-05-07 04:27 | 60.69147 | 19.64724 | 36050 ft | 401 kts | 260° |
| 2026-05-07 04:28 | 60.68412 | 19.53436 | 36052 ft | 401 kts | 260° |
| 2026-05-07 04:28 | 60.67672 | 19.42236 | 36053 ft | 401 kts | 259° |
| 2026-05-07 04:29 | 60.66912 | 19.30962 | 36063 ft | 401 kts | 260° |
| 2026-05-07 04:29 | 60.66143 | 19.19682 | 36055 ft | 402 kts | 259° |
| 2026-05-07 04:30 | 60.65370 | 19.08401 | 36047 ft | 402 kts | 259° |
| 2026-05-07 04:30 | 60.64588 | 18.97104 | 36045 ft | 402 kts | 259° |
| 2026-05-07 04:31 | 60.63793 | 18.85818 | 36046 ft | 402 kts | 259° |
| 2026-05-07 04:31 | 60.62983 | 18.74545 | 36042 ft | 402 kts | 259° |
| 2026-05-07 04:32 | 60.62170 | 18.63273 | 36062 ft | 402 kts | 259° |
| 2026-05-07 04:32 | 60.61344 | 18.51993 | 36037 ft | 403 kts | 259° |
| 2026-05-07 04:33 | 60.60511 | 18.40777 | 36031 ft | 403 kts | 259° |
| 2026-05-07 04:33 | 60.59667 | 18.29497 | 36030 ft | 403 kts | 259° |
| 2026-05-07 04:34 | 60.58814 | 18.18206 | 36026 ft | 404 kts | 259° |
| 2026-05-07 04:34 | 60.57956 | 18.06911 | 36027 ft | 404 kts | 259° |
| 2026-05-07 04:35 | 60.57081 | 17.95636 | 36029 ft | 404 kts | 259° |
| 2026-05-07 04:35 | 60.56193 | 17.84366 | 36045 ft | 404 kts | 259° |
| 2026-05-07 04:36 | 60.55303 | 17.73071 | 36034 ft | 405 kts | 259° |
| 2026-05-07 04:36 | 60.54394 | 17.61786 | 36027 ft | 405 kts | 259° |
| 2026-05-07 04:37 | 60.53475 | 17.50489 | 36025 ft | 405 kts | 259° |
| 2026-05-07 04:37 | 60.52550 | 17.39203 | 36024 ft | 405 kts | 259° |
| 2026-05-07 04:38 | 60.51619 | 17.27923 | 36026 ft | 405 kts | 258° |
| 2026-05-07 04:38 | 60.50682 | 17.16720 | 36026 ft | 405 kts | 258° |
| 2026-05-07 04:39 | 60.49732 | 17.05452 | 36050 ft | 405 kts | 259° |
| 2026-05-07 04:39 | 60.48769 | 16.94179 | 36045 ft | 405 kts | 258° |
| 2026-05-07 04:40 | 60.47798 | 16.82922 | 36039 ft | 405 kts | 258° |
| 2026-05-07 04:40 | 60.46818 | 16.71661 | 36029 ft | 405 kts | 258° |
| 2026-05-07 04:41 | 60.45820 | 16.60427 | 36029 ft | 405 kts | 258° |
| 2026-05-07 04:41 | 60.44815 | 16.49183 | 36026 ft | 405 kts | 258° |
| 2026-05-07 04:42 | 60.43799 | 16.37946 | 36050 ft | 405 kts | 258° |
| 2026-05-07 04:42 | 60.42779 | 16.26722 | 36041 ft | 405 kts | 258° |
| 2026-05-07 04:43 | 60.41761 | 16.15566 | 36034 ft | 406 kts | 258° |
| 2026-05-07 04:43 | 60.40722 | 16.04350 | 36032 ft | 406 kts | 258° |
| 2026-05-07 04:44 | 60.39672 | 15.93133 | 36021 ft | 406 kts | 258° |
| 2026-05-07 04:44 | 60.38613 | 15.81956 | 35983 ft | 406 kts | 258° |
| 2026-05-07 04:45 | 60.37544 | 15.70746 | 35989 ft | 406 kts | 258° |
| 2026-05-07 04:45 | 60.36462 | 15.59543 | 36021 ft | 406 kts | 258° |
| 2026-05-07 04:46 | 60.35375 | 15.48358 | 36016 ft | 406 kts | 258° |
| 2026-05-07 04:46 | 60.34285 | 15.37233 | 36011 ft | 406 kts | 257° |
| 2026-05-07 04:47 | 60.33182 | 15.26049 | 36010 ft | 406 kts | 257° |
| 2026-05-07 04:47 | 60.32070 | 15.14887 | 36013 ft | 406 kts | 257° |
| 2026-05-07 04:48 | 60.30948 | 15.03715 | 36018 ft | 406 kts | 257° |
| 2026-05-07 04:48 | 60.29816 | 14.92557 | 36027 ft | 406 kts | 257° |
| 2026-05-07 04:49 | 60.28666 | 14.81402 | 36034 ft | 407 kts | 257° |
| 2026-05-07 04:49 | 60.27506 | 14.70236 | 36026 ft | 407 kts | 257° |
| 2026-05-07 04:50 | 60.26337 | 14.59051 | 36025 ft | 408 kts | 257° |
| 2026-05-07 04:50 | 60.25160 | 14.47875 | 35987 ft | 408 kts | 257° |
| 2026-05-07 04:51 | 60.23982 | 14.36786 | 36001 ft | 407 kts | 257° |
| 2026-05-07 04:51 | 60.22787 | 14.25648 | 36009 ft | 407 kts | 257° |
| 2026-05-07 04:52 | 60.21583 | 14.14505 | 36031 ft | 407 kts | 257° |
| 2026-05-07 04:52 | 60.20369 | 14.03363 | 36019 ft | 408 kts | 257° |
| 2026-05-07 04:53 | 60.19145 | 13.92205 | 36017 ft | 409 kts | 257° |
| 2026-05-07 04:53 | 60.17907 | 13.81036 | 36018 ft | 410 kts | 257° |
| 2026-05-07 04:54 | 60.16657 | 13.69862 | 36019 ft | 410 kts | 257° |
| 2026-05-07 04:54 | 60.15404 | 13.58769 | 36021 ft | 410 kts | 256° |
| 2026-05-07 04:55 | 60.14135 | 13.47664 | 36023 ft | 411 kts | 256° |
| 2026-05-07 04:55 | 60.12859 | 13.36498 | 36042 ft | 411 kts | 257° |
| 2026-05-07 04:56 | 60.11569 | 13.25321 | 36036 ft | 412 kts | 257° |
| 2026-05-07 04:56 | 60.10264 | 13.14120 | 36035 ft | 412 kts | 257° |
| 2026-05-07 04:57 | 60.08958 | 13.02997 | 36014 ft | 412 kts | 257° |
| 2026-05-07 04:57 | 60.07644 | 12.91875 | 36027 ft | 413 kts | 256° |
| 2026-05-07 04:58 | 60.06319 | 12.80765 | 36037 ft | 413 kts | 256° |
| 2026-05-07 04:58 | 60.04990 | 12.69673 | 36039 ft | 413 kts | 256° |
| 2026-05-07 04:59 | 60.03635 | 12.58500 | 36042 ft | 413 kts | 256° |
| 2026-05-07 04:59 | 60.02270 | 12.47360 | 36041 ft | 412 kts | 256° |
| 2026-05-07 05:00 | 60.00893 | 12.36233 | 36044 ft | 412 kts | 256° |
| 2026-05-07 05:00 | 59.99490 | 12.25127 | 36047 ft | 412 kts | 256° |
| 2026-05-07 05:01 | 59.98076 | 12.14101 | 36050 ft | 412 kts | 256° |
| 2026-05-07 05:01 | 59.96658 | 12.03080 | 36042 ft | 412 kts | 256° |
| 2026-05-07 05:02 | 59.95219 | 11.92019 | 36065 ft | 412 kts | 256° |
| 2026-05-07 05:02 | 59.93776 | 11.81024 | 36057 ft | 412 kts | 256° |
| 2026-05-07 05:03 | 59.92332 | 11.70032 | 36028 ft | 412 kts | 256° |
| 2026-05-07 05:03 | 59.90878 | 11.59069 | 36033 ft | 412 kts | 256° |
| 2026-05-07 05:04 | 59.89405 | 11.48066 | 36043 ft | 411 kts | 256° |
| 2026-05-07 05:04 | 59.88169 | 11.38916 | 36045 ft | 411 kts | 256° |
| 2026-05-07 05:05 | 59.86682 | 11.27920 | 36051 ft | 411 kts | 255° |
| 2026-05-07 05:05 | 59.85178 | 11.16931 | 36059 ft | 411 kts | 256° |
| 2026-05-07 05:06 | 59.83674 | 11.05970 | 36069 ft | 411 kts | 256° |
| 2026-05-07 05:06 | 59.82164 | 10.95014 | 36068 ft | 411 kts | 256° |
| 2026-05-07 05:07 | 59.80638 | 10.84073 | 36066 ft | 411 kts | 255° |
| 2026-05-07 05:07 | 59.79100 | 10.73151 | 36060 ft | 410 kts | 255° |
| 2026-05-07 05:08 | 59.77574 | 10.62308 | 36061 ft | 410 kts | 255° |
| 2026-05-07 05:08 | 59.76036 | 10.51466 | 36072 ft | 410 kts | 255° |
| 2026-05-07 05:09 | 59.74470 | 10.40523 | 36037 ft | 409 kts | 256° |
| 2026-05-07 05:09 | 59.72915 | 10.29751 | 36056 ft | 409 kts | 255° |
| 2026-05-07 05:10 | 59.71346 | 10.18914 | 36068 ft | 409 kts | 255° |
| 2026-05-07 05:10 | 59.69770 | 10.08103 | 36067 ft | 409 kts | 255° |
| 2026-05-07 05:11 | 59.68180 | 9.97299 | 36076 ft | 409 kts | 255° |
| 2026-05-07 05:11 | 59.66586 | 9.86506 | 36075 ft | 409 kts | 255° |
| 2026-05-07 05:12 | 59.64982 | 9.75718 | 36079 ft | 408 kts | 255° |
| 2026-05-07 05:12 | 59.63375 | 9.64969 | 36075 ft | 408 kts | 255° |
| 2026-05-07 05:13 | 59.61753 | 9.54221 | 36071 ft | 408 kts | 255° |
| 2026-05-07 05:13 | 59.60126 | 9.43493 | 36077 ft | 408 kts | 255° |
| 2026-05-07 05:14 | 59.58487 | 9.32773 | 36068 ft | 408 kts | 255° |
| 2026-05-07 05:14 | 59.56843 | 9.22062 | 36078 ft | 408 kts | 255° |
| 2026-05-07 05:15 | 59.55191 | 9.11366 | 36059 ft | 408 kts | 255° |
| 2026-05-07 05:15 | 59.53543 | 9.00763 | 36079 ft | 408 kts | 255° |
| 2026-05-07 05:16 | 59.51870 | 8.90086 | 36087 ft | 407 kts | 255° |
| 2026-05-07 05:16 | 59.50189 | 8.79433 | 36092 ft | 407 kts | 255° |
| 2026-05-07 05:17 | 59.48501 | 8.68806 | 36094 ft | 407 kts | 255° |
| 2026-05-07 05:17 | 59.46811 | 8.58190 | 36092 ft | 406 kts | 255° |
| 2026-05-07 05:18 | 59.45115 | 8.47588 | 36099 ft | 406 kts | 255° |
| 2026-05-07 05:18 | 59.43404 | 8.37001 | 36107 ft | 406 kts | 255° |
| 2026-05-07 05:19 | 59.41692 | 8.26437 | 36114 ft | 406 kts | 255° |
| 2026-05-07 05:19 | 59.39969 | 8.15886 | 36112 ft | 406 kts | 254° |
| 2026-05-07 05:20 | 59.38232 | 8.05348 | 36110 ft | 406 kts | 254° |
| 2026-05-07 05:20 | 59.36491 | 7.94814 | 36121 ft | 406 kts | 254° |
| 2026-05-07 05:21 | 59.33864 | 7.79024 | 36095 ft | 406 kts | 254° |
| 2026-05-07 05:22 | 59.32102 | 7.68498 | 36131 ft | 407 kts | 254° |
| 2026-05-07 05:22 | 59.30328 | 7.57971 | 36137 ft | 407 kts | 254° |
| 2026-05-07 05:23 | 59.28548 | 7.47462 | 36152 ft | 407 kts | 254° |
| 2026-05-07 05:23 | 59.26749 | 7.36961 | 36150 ft | 407 kts | 254° |
| 2026-05-07 05:24 | 59.24956 | 7.26521 | 36154 ft | 407 kts | 254° |
| 2026-05-07 05:24 | 59.23147 | 7.16029 | 36152 ft | 408 kts | 254° |
| 2026-05-07 05:25 | 59.21328 | 7.05541 | 36157 ft | 408 kts | 254° |
| 2026-05-07 05:25 | 59.19496 | 6.95065 | 36156 ft | 408 kts | 254° |
| 2026-05-07 05:26 | 59.17660 | 6.84604 | 36141 ft | 407 kts | 254° |
| 2026-05-07 05:26 | 59.15813 | 6.74160 | 36139 ft | 407 kts | 253° |
| 2026-05-07 05:27 | 59.13962 | 6.63713 | 36074 ft | 408 kts | 254° |
| 2026-05-07 05:27 | 59.12096 | 6.53279 | 36081 ft | 408 kts | 253° |
| 2026-05-07 05:28 | 59.10217 | 6.42842 | 36082 ft | 409 kts | 253° |
| 2026-05-07 05:28 | 59.08335 | 6.32393 | 36076 ft | 409 kts | 253° |
| 2026-05-07 05:29 | 59.06451 | 6.22029 | 36083 ft | 410 kts | 253° |
| 2026-05-07 05:29 | 59.04541 | 6.11597 | 36090 ft | 410 kts | 253° |
| 2026-05-07 05:30 | 59.02610 | 6.01097 | 36101 ft | 410 kts | 253° |
| 2026-05-07 05:30 | 59.00698 | 5.90751 | 36112 ft | 410 kts | 253° |
| 2026-05-07 05:31 | 58.98764 | 5.80350 | 36107 ft | 410 kts | 253° |
| 2026-05-07 05:31 | 58.96821 | 5.69940 | 36118 ft | 410 kts | 253° |
| 2026-05-07 05:32 | 58.94880 | 5.59531 | 36096 ft | 410 kts | 253° |
| 2026-05-07 05:32 | 58.92923 | 5.49145 | 36100 ft | 410 kts | 253° |
| 2026-05-07 05:33 | 58.90956 | 5.38762 | 36047 ft | 411 kts | 253° |
| 2026-05-07 05:33 | 58.88977 | 5.28379 | 36071 ft | 411 kts | 253° |
| 2026-05-07 05:34 | 58.86984 | 5.18004 | 36070 ft | 412 kts | 252° |
| 2026-05-07 05:34 | 58.84981 | 5.07629 | 36077 ft | 412 kts | 252° |
| 2026-05-07 05:35 | 58.82973 | 4.97263 | 36089 ft | 412 kts | 252° |
| 2026-05-07 05:35 | 58.80961 | 4.86911 | 36094 ft | 412 kts | 252° |
| 2026-05-07 05:36 | 58.78944 | 4.76632 | 36099 ft | 412 kts | 252° |
| 2026-05-07 05:36 | 58.76908 | 4.66309 | 36102 ft | 412 kts | 252° |
| 2026-05-07 05:37 | 58.74864 | 4.55966 | 36108 ft | 413 kts | 252° |
| 2026-05-07 05:37 | 58.72810 | 4.45643 | 36107 ft | 413 kts | 252° |
| 2026-05-07 05:38 | 58.70748 | 4.35333 | 36117 ft | 412 kts | 252° |
| 2026-05-07 05:38 | 58.68701 | 4.25109 | 36120 ft | 412 kts | 252° |
| 2026-05-07 05:39 | 58.66646 | 4.14920 | 36121 ft | 411 kts | 252° |
| 2026-05-07 05:39 | 58.64564 | 4.04684 | 36121 ft | 411 kts | 252° |
| 2026-05-07 05:40 | 58.62489 | 3.94540 | 36118 ft | 411 kts | 252° |
| 2026-05-07 05:40 | 58.60385 | 3.84264 | 36116 ft | 411 kts | 252° |
| 2026-05-07 05:41 | 58.58311 | 3.74199 | 36117 ft | 411 kts | 251° |
| 2026-05-07 05:41 | 58.56203 | 3.64038 | 36122 ft | 410 kts | 251° |
| 2026-05-07 05:42 | 58.54095 | 3.53898 | 36115 ft | 409 kts | 251° |
| 2026-05-07 05:42 | 58.51982 | 3.43796 | 36114 ft | 408 kts | 251° |
| 2026-05-07 05:43 | 58.49865 | 3.33721 | 36115 ft | 408 kts | 251° |
| 2026-05-07 05:43 | 58.47741 | 3.23664 | 36114 ft | 408 kts | 251° |
| 2026-05-07 05:44 | 58.45607 | 3.13621 | 36112 ft | 408 kts | 251° |
| 2026-05-07 05:44 | 58.43472 | 3.03584 | 36073 ft | 407 kts | 251° |
| 2026-05-07 05:45 | 58.41334 | 2.93634 | 36085 ft | 407 kts | 251° |
| 2026-05-07 05:45 | 58.39172 | 2.83653 | 36092 ft | 407 kts | 251° |
| 2026-05-07 05:46 | 58.37158 | 2.73587 | 36090 ft | 406 kts | 253° |
| 2026-05-07 05:46 | 58.35328 | 2.63436 | 36088 ft | 405 kts | 254° |
| 2026-05-07 05:47 | 58.33493 | 2.53353 | 36098 ft | 406 kts | 253° |
| 2026-05-07 05:47 | 58.31581 | 2.43229 | 36096 ft | 406 kts | 253° |
| 2026-05-07 05:48 | 58.29661 | 2.33227 | 36097 ft | 405 kts | 253° |
| 2026-05-07 05:48 | 58.27731 | 2.23161 | 36101 ft | 405 kts | 253° |
| 2026-05-07 05:49 | 58.25804 | 2.13116 | 36092 ft | 405 kts | 253° |
| 2026-05-07 05:49 | 58.23882 | 2.03138 | 36094 ft | 404 kts | 252° |
| 2026-05-07 05:50 | 58.21929 | 1.93117 | 36089 ft | 405 kts | 252° |
| 2026-05-07 05:50 | 58.20300 | 1.84799 | 36091 ft | 405 kts | 252° |
| 2026-05-07 05:51 | 58.18339 | 1.74807 | 36059 ft | 404 kts | 252° |
| 2026-05-07 05:51 | 58.16371 | 1.64813 | 36060 ft | 405 kts | 252° |
| 2026-05-07 05:52 | 58.14386 | 1.54809 | 36057 ft | 405 kts | 252° |
| 2026-05-07 05:52 | 58.12398 | 1.44820 | 36067 ft | 406 kts | 252° |
| 2026-05-07 05:53 | 58.10403 | 1.34833 | 36076 ft | 406 kts | 252° |
| 2026-05-07 05:53 | 58.08395 | 1.24854 | 36078 ft | 406 kts | 252° |
| 2026-05-07 05:54 | 58.06379 | 1.14881 | 36071 ft | 406 kts | 251° |
| 2026-05-07 05:54 | 58.04364 | 1.04930 | 36071 ft | 406 kts | 251° |
| 2026-05-07 05:55 | 58.02336 | 0.94999 | 36072 ft | 406 kts | 251° |
| 2026-05-07 05:55 | 58.00297 | 0.85081 | 36073 ft | 406 kts | 251° |
| 2026-05-07 05:56 | 57.98251 | 0.75170 | 36073 ft | 406 kts | 251° |
| 2026-05-07 05:56 | 57.96197 | 0.65277 | 36063 ft | 405 kts | 251° |
| 2026-05-07 05:57 | 57.94144 | 0.55393 | 36060 ft | 405 kts | 250° |
| 2026-05-07 05:57 | 57.92092 | 0.45580 | 36023 ft | 406 kts | 250° |
| 2026-05-07 05:58 | 57.90013 | 0.35705 | 36029 ft | 407 kts | 250° |
| 2026-05-07 05:58 | 57.87921 | 0.25821 | 36033 ft | 407 kts | 250° |
| 2026-05-07 05:59 | 57.85821 | 0.15930 | 36035 ft | 408 kts | 250° |
| 2026-05-07 05:59 | 57.83708 | 0.06034 | 36037 ft | 408 kts | 250° |
| 2026-05-07 06:00 | 57.81592 | -0.03833 | 36034 ft | 408 kts | 249° |
| 2026-05-07 06:00 | 57.79462 | -0.13697 | 36032 ft | 408 kts | 250° |
| 2026-05-07 06:01 | 57.77334 | -0.23563 | 36033 ft | 408 kts | 250° |
| 2026-05-07 06:01 | 57.75191 | -0.33412 | 36036 ft | 409 kts | 249° |
| 2026-05-07 06:02 | 57.73048 | -0.43208 | 36037 ft | 409 kts | 249° |
| 2026-05-07 06:02 | 57.70881 | -0.53051 | 36041 ft | 409 kts | 249° |
| 2026-05-07 06:03 | 57.68706 | -0.62892 | 36045 ft | 409 kts | 249° |
| 2026-05-07 06:03 | 57.66558 | -0.72594 | 36037 ft | 409 kts | 249° |
| 2026-05-07 06:04 | 57.64377 | -0.82399 | 36004 ft | 409 kts | 249° |
| 2026-05-07 06:04 | 57.62183 | -0.92226 | 36017 ft | 410 kts | 249° |
| 2026-05-07 06:05 | 57.59973 | -1.02051 | 36014 ft | 411 kts | 249° |
| 2026-05-07 06:05 | 57.57757 | -1.11855 | 36015 ft | 411 kts | 249° |
| 2026-05-07 06:06 | 57.55535 | -1.21647 | 36009 ft | 411 kts | 249° |
| 2026-05-07 06:06 | 57.53297 | -1.31439 | 36017 ft | 411 kts | 249° |
| 2026-05-07 06:07 | 57.51057 | -1.41210 | 36017 ft | 411 kts | 249° |
| 2026-05-07 06:07 | 57.48819 | -1.50949 | 36011 ft | 411 kts | 248° |
| 2026-05-07 06:08 | 57.46586 | -1.60658 | 36014 ft | 411 kts | 248° |
| 2026-05-07 06:08 | 57.44325 | -1.70427 | 36011 ft | 412 kts | 248° |
| 2026-05-07 06:09 | 57.42052 | -1.80177 | 36017 ft | 411 kts | 248° |
| 2026-05-07 06:09 | 57.39775 | -1.89915 | 36019 ft | 411 kts | 248° |
| 2026-05-07 06:10 | 57.37495 | -1.99615 | 36014 ft | 411 kts | 248° |
| 2026-05-07 06:10 | 57.35198 | -2.09309 | 35992 ft | 411 kts | 248° |
| 2026-05-07 06:11 | 57.32895 | -2.18981 | 35992 ft | 411 kts | 247° |
| 2026-05-07 06:11 | 57.29756 | -2.27732 | 35993 ft | 416 kts | 229° |
| 2026-05-07 06:11 | 57.27575 | -2.31293 | 35884 ft | 421 kts | 219° |
| 2026-05-07 06:12 | 57.25179 | -2.34409 | 35600 ft | 422 kts | 219° |
| 2026-05-07 06:12 | 57.22766 | -2.37526 | 34784 ft | 424 kts | 219° |
| 2026-05-07 06:12 | 57.20345 | -2.40655 | 33958 ft | 426 kts | 219° |
| 2026-05-07 06:12 | 57.17913 | -2.43796 | 32998 ft | 427 kts | 219° |
| 2026-05-07 06:13 | 57.15472 | -2.46946 | 32070 ft | 428 kts | 219° |
| 2026-05-07 06:13 | 57.13029 | -2.50100 | 31158 ft | 429 kts | 219° |
| 2026-05-07 06:13 | 57.10584 | -2.53253 | 30202 ft | 430 kts | 219° |
| 2026-05-07 06:13 | 57.08124 | -2.56425 | 29138 ft | 432 kts | 218° |
| 2026-05-07 06:14 | 57.05695 | -2.59545 | 28698 ft | 420 kts | 218° |
| 2026-05-07 06:14 | 57.03315 | -2.62594 | 28054 ft | 415 kts | 218° |
| 2026-05-07 06:14 | 57.00966 | -2.65599 | 27436 ft | 409 kts | 218° |
| 2026-05-07 06:14 | 56.98638 | -2.68570 | 26819 ft | 405 kts | 218° |
| 2026-05-07 06:15 | 56.96343 | -2.71499 | 26205 ft | 401 kts | 218° |
| 2026-05-07 06:15 | 56.94060 | -2.74410 | 25587 ft | 397 kts | 218° |
| 2026-05-07 06:15 | 56.91800 | -2.77281 | 24977 ft | 394 kts | 219° |
| 2026-05-07 06:15 | 56.89582 | -2.80100 | 24382 ft | 392 kts | 218° |
| 2026-05-07 06:16 | 56.87326 | -2.82967 | 23781 ft | 389 kts | 218° |
| 2026-05-07 06:16 | 56.85139 | -2.85742 | 23150 ft | 386 kts | 218° |
| 2026-05-07 06:16 | 56.82944 | -2.88527 | 22575 ft | 382 kts | 218° |
| 2026-05-07 06:16 | 56.80777 | -2.91271 | 22043 ft | 377 kts | 218° |
| 2026-05-07 06:17 | 56.78629 | -2.93984 | 21542 ft | 373 kts | 218° |
| 2026-05-07 06:17 | 56.76506 | -2.96661 | 21061 ft | 369 kts | 218° |
| 2026-05-07 06:17 | 56.74404 | -2.99307 | 20586 ft | 365 kts | 218° |
| 2026-05-07 06:17 | 56.72321 | -3.01922 | 20151 ft | 361 kts | 218° |
| 2026-05-07 06:18 | 56.70278 | -3.04480 | 19829 ft | 353 kts | 217° |
| 2026-05-07 06:18 | 56.68262 | -3.07003 | 19396 ft | 350 kts | 217° |
| 2026-05-07 06:18 | 56.66276 | -3.09493 | 18955 ft | 347 kts | 217° |
| 2026-05-07 06:18 | 56.64297 | -3.11969 | 18506 ft | 344 kts | 217° |
| 2026-05-07 06:19 | 56.62328 | -3.14419 | 18023 ft | 342 kts | 217° |
| 2026-05-07 06:19 | 56.60372 | -3.16846 | 17545 ft | 339 kts | 217° |
| 2026-05-07 06:19 | 56.58432 | -3.19255 | 17090 ft | 336 kts | 217° |
| 2026-05-07 06:19 | 56.56513 | -3.21643 | 16628 ft | 333 kts | 217° |
| 2026-05-07 06:20 | 56.54601 | -3.24021 | 16162 ft | 332 kts | 217° |
| 2026-05-07 06:20 | 56.52703 | -3.26382 | 15676 ft | 331 kts | 216° |
| 2026-05-07 06:20 | 56.50808 | -3.28737 | 15208 ft | 330 kts | 216° |
| 2026-05-07 06:20 | 56.48854 | -3.30770 | 14453 ft | 332 kts | 202° |
| 2026-05-07 06:21 | 56.46598 | -3.31522 | 13793 ft | 328 kts | 180° |
| 2026-05-07 06:21 | 56.44463 | -3.30856 | 13593 ft | 312 kts | 164° |
| 2026-05-07 06:21 | 56.42398 | -3.29538 | 13033 ft | 303 kts | 163° |
| 2026-05-07 06:21 | 56.40428 | -3.28237 | 12392 ft | 299 kts | 162° |
| 2026-05-07 06:22 | 56.38493 | -3.26948 | 11749 ft | 295 kts | 163° |
| 2026-05-07 06:22 | 56.34681 | -3.24396 | 10491 ft | 289 kts | 162° |
| 2026-05-07 06:22 | 56.32808 | -3.23139 | 9863 ft | 285 kts | 162° |
| 2026-05-07 06:23 | 56.30962 | -3.21902 | 9182 ft | 282 kts | 162° |
| 2026-05-07 06:23 | 56.29138 | -3.20686 | 8543 ft | 277 kts | 162° |
| 2026-05-07 06:23 | 56.27346 | -3.19495 | 7895 ft | 272 kts | 162° |
| 2026-05-07 06:23 | 56.25601 | -3.18332 | 7229 ft | 269 kts | 162° |
| 2026-05-07 06:24 | 56.23860 | -3.17177 | 6680 ft | 263 kts | 162° |
| 2026-05-07 06:24 | 56.22216 | -3.16088 | 6540 ft | 241 kts | 162° |
| 2026-05-07 06:24 | 56.20683 | -3.15073 | 6168 ft | 231 kts | 162° |
| 2026-05-07 06:24 | 56.19186 | -3.14085 | 5623 ft | 228 kts | 162° |
| 2026-05-07 06:25 | 56.17694 | -3.13106 | 5069 ft | 227 kts | 162° |
| 2026-05-07 06:25 | 56.16221 | -3.12138 | 4713 ft | 223 kts | 162° |
| 2026-05-07 06:25 | 56.14745 | -3.11168 | 4582 ft | 228 kts | 162° |
| 2026-05-07 06:25 | 56.13257 | -3.10189 | 4476 ft | 225 kts | 162° |
| 2026-05-07 06:26 | 56.11808 | -3.09232 | 4378 ft | 221 kts | 163° |
| 2026-05-07 06:26 | 56.10370 | -3.08287 | 4284 ft | 220 kts | 163° |
| 2026-05-07 06:26 | 56.08934 | -3.07345 | 4176 ft | 219 kts | 163° |
| 2026-05-07 06:26 | 56.07468 | -3.06797 | 4001 ft | 212 kts | 183° |
| 2026-05-07 06:27 | 56.06063 | -3.07229 | 3858 ft | 201 kts | 203° |
| 2026-05-07 06:27 | 56.04910 | -3.08442 | 3673 ft | 193 kts | 222° |
| 2026-05-07 06:27 | 56.04070 | -3.10285 | 3447 ft | 190 kts | 238° |
| 2026-05-07 06:27 | 56.03394 | -3.12306 | 3204 ft | 188 kts | 238° |
| 2026-05-07 06:28 | 56.02731 | -3.14293 | 2979 ft | 183 kts | 237° |
| 2026-05-07 06:28 | 56.02085 | -3.16223 | 2675 ft | 178 kts | 237° |
| 2026-05-07 06:28 | 56.01470 | -3.18086 | 2478 ft | 170 kts | 237° |
| 2026-05-07 06:28 | 56.00878 | -3.19864 | 2219 ft | 164 kts | 236° |
| 2026-05-07 06:29 | 56.00302 | -3.21588 | 1945 ft | 157 kts | 236° |
| 2026-05-07 06:29 | 55.99764 | -3.23183 | 1772 ft | 143 kts | 235° |
| 2026-05-07 06:29 | 55.99261 | -3.24662 | 1577 ft | 137 kts | 235° |
| 2026-05-07 06:29 | 55.98763 | -3.26109 | 1397 ft | 136 kts | 235° |
| 2026-05-07 06:30 | 55.98281 | -3.27567 | 1196 ft | 137 kts | 236° |
| 2026-05-07 06:30 | 55.97795 | -3.29005 | 1008 ft | 137 kts | 237° |
| 2026-05-07 06:30 | 55.97294 | -3.30489 | 816 ft | 140 kts | 236° |
| 2026-05-07 06:30 | 55.96777 | -3.31975 | 634 ft | 142 kts | 238° |
| 2026-05-07 06:31 | 55.96271 | -3.33493 | 435 ft | 142 kts | 237° |
| 2026-05-07 06:31 | 55.95785 | -3.34937 | 258 ft | 142 kts | 238° |
| 2026-05-07 06:31 | 55.95265 | -3.36471 | 113 ft | 136 kts | 239° |
| 2026-05-07 06:31 | 55.94877 | -3.37610 | 114 ft | 67 kts | 239° |
| 2026-05-07 06:32 | 55.94734 | -3.38029 | 115 ft | 14 kts | 239° |
| 2026-05-07 06:32 | 55.94652 | -3.38015 | 115 ft | 14 kts | 149° |
| 2026-05-07 06:32 | 55.94587 | -3.37907 | 115 ft | 12 kts | 92° |
| 2026-05-07 06:32 | 55.94627 | -3.37782 | 115 ft | 11 kts | 58° |
| 2026-05-07 06:33 | 55.94664 | -3.37673 | 115 ft | 10 kts | 59° |
| 2026-05-07 06:33 | 55.94696 | -3.37575 | 113 ft | 9 kts | 60° |
| 2026-05-07 06:33 | 55.94725 | -3.37488 | 116 ft | 8 kts | 59° |
| 2026-05-07 06:33 | 55.94769 | -3.37356 | 114 ft | 16 kts | 59° |
| 2026-05-07 06:34 | 55.94823 | -3.37198 | 116 ft | 14 kts | 58° |
| 2026-05-07 06:34 | 55.94871 | -3.37058 | 114 ft | 8 kts | 59° |
| 2026-05-07 06:34 | 55.94874 | -3.37048 | 113 ft | 0 kts | 59° |
| 2026-05-07 06:35 | 55.94891 | -3.36997 | 113 ft | 12 kts | 59° |
| 2026-05-07 06:35 | 55.94925 | -3.36858 | 116 ft | 12 kts | 96° |
| 2026-05-07 06:36 | 55.94855 | -3.36778 | 116 ft | 14 kts | 174° |
| 2026-05-07 06:36 | 55.94762 | -3.36755 | 114 ft | 13 kts | 153° |
| 2026-05-07 06:36 | 55.94700 | -3.36706 | 115 ft | 7 kts | 105° |
| 2026-05-07 06:36 | 55.94702 | -3.36622 | 116 ft | 6 kts | 89° |
| 2026-05-07 06:37 | 55.94702 | -3.36603 | 116 ft | 0 kts | 89° |